Time;durP1;ratioP1;P1;durP2;ratioP2;P2;SDS_P1;SDS_P2;PMS_P1;PMS_P2;Temp;Humidity;BMP_temperature;BMP_pressure;BME280_temperature;BME280_humidity;BME280_pressure;Samples;Min_cycle;Max_cycle;Signal;HPM_P1;HPM_P2
2022/12/26 00:00:21;;;;;;;60.53;21.17;;;9.90;99.90;;;;;;5110212;28;20192;-70
2022/12/26 00:02:48;;;;;;;60.53;21.70;;;9.90;99.90;;;;;;5110383;28;20321;-70
2022/12/26 00:05:15;;;;;;;63.13;23.03;;;9.90;99.90;;;;;;5094432;28;20528;-70
2022/12/26 00:07:41;;;;;;;64.93;24.43;;;9.90;99.90;;;;;;5107069;28;20207;-70
2022/12/26 00:10:08;;;;;;;67.70;24.73;;;9.90;99.90;;;;;;5110234;28;20667;-70
2022/12/26 00:12:35;;;;;;;63.23;22.43;;;9.90;99.90;;;;;;5092874;28;20325;-70
2022/12/26 00:15:02;;;;;;;68.90;22.60;;;9.90;99.90;;;;;;5110194;28;20475;-70
2022/12/26 00:17:29;;;;;;;59.67;21.77;;;10.00;99.90;;;;;;5112923;28;20259;-70
2022/12/26 00:19:56;;;;;;;63.10;21.23;;;10.00;99.90;;;;;;5109185;28;20208;-70
2022/12/26 00:22:22;;;;;;;69.97;24.00;;;10.00;99.90;;;;;;5112838;28;20246;-70
2022/12/26 00:24:49;;;;;;;68.77;24.00;;;10.00;99.90;;;;;;5109737;28;20290;-70
2022/12/26 00:27:16;;;;;;;70.23;23.20;;;10.00;99.90;;;;;;5109882;28;20659;-72
2022/12/26 00:29:43;;;;;;;68.60;21.57;;;9.90;99.90;;;;;;5112231;28;20207;-70
2022/12/26 00:32:09;;;;;;;61.77;21.73;;;9.90;99.90;;;;;;5111521;28;20694;-70
2022/12/26 00:34:37;;;;;;;71.23;23.43;;;9.90;99.90;;;;;;5112327;28;20209;-70
2022/12/26 00:37:04;;;;;;;64.77;23.60;;;9.90;99.90;;;;;;5092386;28;20253;-70
2022/12/26 00:39:30;;;;;;;65.03;24.87;;;9.90;99.90;;;;;;5108744;28;20631;-70
2022/12/26 00:41:57;;;;;;;69.70;23.67;;;9.80;99.90;;;;;;5111450;28;21305;-70
2022/12/26 00:44:24;;;;;;;68.37;22.37;;;9.90;99.90;;;;;;5105215;28;20216;-70
2022/12/26 00:46:50;;;;;;;64.33;22.17;;;9.90;99.90;;;;;;5111800;28;20632;-70
2022/12/26 00:49:17;;;;;;;77.67;24.33;;;9.80;99.90;;;;;;5109600;28;20227;-70
2022/12/26 00:51:44;;;;;;;63.47;23.27;;;9.90;99.90;;;;;;5106198;28;20194;-70
2022/12/26 00:54:10;;;;;;;70.83;24.97;;;9.90;99.90;;;;;;5110720;28;20200;-70
2022/12/26 00:56:37;;;;;;;73.53;23.80;;;9.90;99.90;;;;;;5092002;28;20593;-70
2022/12/26 00:59:04;;;;;;;62.90;22.83;;;9.90;99.90;;;;;;5111645;28;20199;-70
2022/12/26 01:01:31;;;;;;;64.17;23.93;;;9.90;99.90;;;;;;5110495;28;20246;-70
2022/12/26 01:03:58;;;;;;;67.23;22.63;;;9.90;99.90;;;;;;5111647;28;20229;-70
2022/12/26 01:06:25;;;;;;;74.23;25.93;;;9.90;99.90;;;;;;5107800;28;20282;-70
2022/12/26 01:08:52;;;;;;;76.43;24.57;;;9.90;99.90;;;;;;5111325;28;20747;-70
2022/12/26 01:11:38;;;;;;;87.10;26.17;;;9.90;99.90;;;;;;5110022;28;20624;-70
2022/12/26 01:14:10;;;;;;;73.47;24.47;;;9.80;99.90;;;;;;5109511;28;20199;-71
2022/12/26 01:16:38;;;;;;;68.10;24.33;;;9.90;99.90;;;;;;5110737;28;20338;-70
2022/12/26 01:19:05;;;;;;;85.17;26.43;;;9.90;99.90;;;;;;5109181;28;20205;-70
2022/12/26 01:21:32;;;;;;;82.80;26.37;;;9.90;99.90;;;;;;5110914;28;20202;-70
2022/12/26 01:23:59;;;;;;;86.83;27.87;;;9.80;99.90;;;;;;5111136;28;20242;-70
2022/12/26 01:26:26;;;;;;;87.07;26.90;;;9.80;99.90;;;;;;5109290;28;20256;-70
2022/12/26 01:28:53;;;;;;;84.50;27.73;;;9.90;99.90;;;;;;5109070;28;20207;-70
2022/12/26 01:31:21;;;;;;;81.03;26.30;;;9.80;99.90;;;;;;5111258;28;20305;-70
2022/12/26 01:33:48;;;;;;;85.37;26.43;;;9.90;99.90;;;;;;5110639;28;20843;-70
2022/12/26 01:36:16;;;;;;;74.90;24.63;;;9.90;99.90;;;;;;5110381;28;20203;-70
2022/12/26 01:38:43;;;;;;;73.03;25.00;;;9.90;99.90;;;;;;5108359;28;20206;-70
2022/12/26 01:41:15;;;;;;;74.50;24.60;;;9.80;99.90;;;;;;5109148;28;20293;-70
2022/12/26 01:44:03;;;;;;;77.50;24.03;;;9.80;99.90;;;;;;5105897;28;20222;-71
2022/12/26 01:46:34;;;;;;;76.17;23.93;;;9.90;99.90;;;;;;5108273;28;20242;-70
2022/12/26 01:49:12;;;;;;;68.60;22.73;;;9.80;99.90;;;;;;5107654;28;20211;-70
2022/12/26 01:51:41;;;;;;;70.77;21.53;;;9.80;99.90;;;;;;5102617;28;20209;-70
2022/12/26 01:54:10;;;;;;;76.73;23.30;;;9.80;99.90;;;;;;5105977;28;20671;-70
2022/12/26 01:56:58;;;;;;;62.97;21.50;;;9.80;99.90;;;;;;5109003;28;20214;-70
2022/12/26 01:59:29;;;;;;;68.50;20.67;;;9.80;99.90;;;;;;5110917;28;20290;-70
2022/12/26 02:01:57;;;;;;;65.23;21.23;;;9.80;99.90;;;;;;5089487;28;20703;-70
2022/12/26 02:07:15;;;;;;;66.03;21.83;;;9.80;99.90;;;;;;5107925;28;20290;-71
2022/12/26 02:09:41;;;;;;;61.87;21.87;;;9.80;99.90;;;;;;5085755;28;20261;-70
2022/12/26 02:12:32;;;;;;;68.23;22.80;;;9.80;99.90;;;;;;5109424;28;20304;-69
2022/12/26 02:15:12;;;;;;;68.30;22.87;;;9.80;99.90;;;;;;5098027;28;20203;-70
2022/12/26 02:17:40;;;;;;;76.17;25.80;;;9.80;99.90;;;;;;5110438;28;20234;-70
2022/12/26 02:20:23;;;;;;;73.37;24.63;;;9.80;99.90;;;;;;5110244;28;20577;-70
2022/12/26 02:23:11;;;;;;;73.43;25.53;;;9.80;99.90;;;;;;5107844;28;20441;-70
2022/12/26 02:26:09;;;;;;;80.90;25.93;;;9.80;99.90;;;;;;5106952;28;20286;-70
2022/12/26 02:28:45;;;;;;;70.27;24.77;;;9.80;99.90;;;;;;5106688;28;20210;-69
2022/12/26 02:31:38;;;;;;;76.97;25.93;;;9.80;99.90;;;;;;5109719;28;20209;-69
2022/12/26 02:34:14;;;;;;;83.10;26.17;;;9.90;99.90;;;;;;5104154;28;20195;-70
2022/12/26 02:36:55;;;;;;;74.37;25.53;;;9.90;99.90;;;;;;5108664;28;20209;-69
2022/12/26 02:39:38;;;;;;;70.37;25.73;;;9.90;99.90;;;;;;5107665;28;20286;-69
2022/12/26 02:42:44;;;;;;;65.50;25.37;;;9.90;99.90;;;;;;5105580;28;20222;-69
2022/12/26 02:48:34;;;;;;;73.00;25.87;;;9.90;99.90;;;;;;5066342;28;20199;-69
2022/12/26 03:14:41;;;;;;;79.40;27.67;;;9.90;99.90;;;;;;5111255;28;20235;-69
2022/12/26 03:17:19;;;;;;;70.13;27.93;;;9.80;99.90;;;;;;5112547;28;20206;-69
2022/12/26 03:20:01;;;;;;;68.80;26.40;;;9.80;99.90;;;;;;5087624;28;20230;-69
2022/12/26 03:22:37;;;;;;;72.53;28.33;;;9.80;99.90;;;;;;5111754;28;20216;-69
2022/12/26 03:27:54;;;;;;;72.47;29.87;;;9.80;99.90;;;;;;5112111;28;20359;-69
2022/12/26 03:34:16;;;;;;;74.43;28.83;;;9.80;99.90;;;;;;5107347;28;20241;-69
2022/12/26 03:35:57;;;;;;;77.17;31.07;;;9.80;99.90;;;;;;5111762;28;20294;-70
2022/12/26 03:38:50;;;;;;;72.37;29.73;;;9.70;99.90;;;;;;5111337;28;20290;-69
2022/12/26 04:20:47;;;;;;;62.27;28.13;;;9.50;99.90;;;;;;5111004;28;20215;-70
2022/12/26 04:46:29;;;;;;;55.90;25.20;;;9.40;99.90;;;;;;5110448;28;20264;-70
2022/12/26 04:51:42;;;;;;;51.47;25.60;;;9.50;99.90;;;;;;5109910;28;20274;-70
2022/12/26 04:54:09;;;;;;;53.63;25.20;;;9.50;99.90;;;;;;5108231;28;20206;-69
2022/12/26 04:56:36;;;;;;;47.67;24.80;;;9.50;99.90;;;;;;5105540;28;20195;-69
2022/12/26 04:59:03;;;;;;;49.27;24.97;;;9.50;99.90;;;;;;5110444;28;20286;-70
2022/12/26 05:09:52;;;;;;;52.33;26.03;;;9.40;99.90;;;;;;5110527;28;20310;-69
2022/12/26 05:12:19;;;;;;;48.97;23.40;;;9.40;99.90;;;;;;5110052;28;20237;-69
2022/12/26 05:14:46;;;;;;;52.27;25.07;;;9.40;99.90;;;;;;5107533;28;20259;-69
2022/12/26 05:31:06;;;;;;;55.47;26.60;;;9.40;99.90;;;;;;5109309;28;20227;-69
2022/12/26 05:36:20;;;;;;;57.50;27.17;;;9.30;99.90;;;;;;5108750;28;20206;-69
2022/12/26 05:38:47;;;;;;;62.57;28.53;;;9.30;99.90;;;;;;5110210;28;20200;-69
2022/12/26 05:41:15;;;;;;;57.37;29.10;;;9.30;99.90;;;;;;5092654;28;20655;-69
2022/12/26 05:43:42;;;;;;;61.57;28.60;;;9.30;99.90;;;;;;5108987;28;20266;-68
2022/12/26 05:46:08;;;;;;;57.87;27.03;;;9.30;99.90;;;;;;5110994;28;20297;-69
2022/12/26 05:48:35;;;;;;;56.10;28.00;;;9.20;99.90;;;;;;5109558;28;20225;-70
2022/12/26 05:51:03;;;;;;;53.97;27.47;;;9.20;99.90;;;;;;5088092;28;20269;-69
2022/12/26 05:53:30;;;;;;;59.87;27.27;;;9.20;99.90;;;;;;5106067;28;20246;-69
2022/12/26 05:56:05;;;;;;;51.10;25.77;;;9.20;99.90;;;;;;5090276;28;20198;-69
2022/12/26 05:58:33;;;;;;;48.40;25.03;;;9.20;99.90;;;;;;5105983;28;20208;-70
2022/12/26 06:01:05;;;;;;;46.03;23.77;;;9.20;99.90;;;;;;5110747;28;20284;-70
2022/12/26 06:03:32;;;;;;;46.00;24.57;;;9.20;99.90;;;;;;5110248;28;20218;-69
2022/12/26 06:05:59;;;;;;;44.17;22.57;;;9.20;99.90;;;;;;5090987;28;20659;-69
2022/12/26 06:08:26;;;;;;;45.00;22.33;;;9.20;99.90;;;;;;5106084;28;20206;-69
2022/12/26 06:10:52;;;;;;;42.70;22.33;;;9.10;99.90;;;;;;5092619;28;20211;-69
2022/12/26 06:13:19;;;;;;;40.67;22.20;;;9.20;99.90;;;;;;5109720;28;20214;-69
2022/12/26 06:15:46;;;;;;;40.33;20.37;;;9.10;99.90;;;;;;5107484;28;20292;-69
2022/12/26 06:18:13;;;;;;;36.67;19.77;;;9.20;99.90;;;;;;5110056;28;20318;-69
2022/12/26 06:20:39;;;;;;;33.93;18.63;;;9.10;99.90;;;;;;5110004;28;20234;-69
2022/12/26 06:23:06;;;;;;;35.90;19.87;;;9.10;99.90;;;;;;5105639;28;20252;-69
2022/12/26 06:25:33;;;;;;;36.57;17.63;;;9.10;99.90;;;;;;5110046;28;20237;-69
2022/12/26 06:28:00;;;;;;;36.40;18.13;;;9.00;99.90;;;;;;5105473;28;20213;-70
2022/12/26 06:30:26;;;;;;;30.10;16.40;;;9.00;99.90;;;;;;5107963;28;20199;-69
2022/12/26 06:32:53;;;;;;;28.67;15.90;;;9.00;99.90;;;;;;5110510;28;20218;-69
2022/12/26 06:35:20;;;;;;;26.03;15.67;;;9.00;99.90;;;;;;5104405;28;20387;-70
2022/12/26 06:37:48;;;;;;;25.20;13.90;;;9.00;99.90;;;;;;5106323;28;20241;-70
2022/12/26 06:40:15;;;;;;;24.10;14.03;;;9.00;99.90;;;;;;5092493;28;20206;-69
2022/12/26 06:42:42;;;;;;;23.83;12.83;;;9.00;99.90;;;;;;5090709;28;20289;-69
2022/12/26 06:45:09;;;;;;;22.93;13.67;;;9.00;99.90;;;;;;5109478;28;20265;-70
2022/12/26 06:47:36;;;;;;;24.77;13.20;;;9.00;99.90;;;;;;5108236;28;20249;-69
2022/12/26 06:50:03;;;;;;;19.47;12.27;;;9.00;99.90;;;;;;5108378;28;20265;-69
2022/12/26 06:52:29;;;;;;;26.77;13.67;;;9.00;99.90;;;;;;5109226;28;20255;-69
2022/12/26 06:54:57;;;;;;;23.97;13.17;;;9.00;99.90;;;;;;5109953;28;20297;-69
2022/12/26 06:57:24;;;;;;;20.70;12.63;;;9.00;99.90;;;;;;5108973;28;20199;-69
2022/12/26 06:59:51;;;;;;;20.27;12.40;;;9.00;99.90;;;;;;5103329;28;20623;-69
2022/12/26 07:02:17;;;;;;;22.17;13.27;;;9.00;99.90;;;;;;5108424;28;20215;-69
2022/12/26 07:04:44;;;;;;;19.93;12.47;;;9.00;99.90;;;;;;5109887;28;20230;-69
2022/12/26 07:07:11;;;;;;;24.97;13.60;;;8.90;99.90;;;;;;5109904;28;20200;-70
2022/12/26 07:09:37;;;;;;;21.23;12.23;;;8.90;99.90;;;;;;5109606;28;20679;-70
2022/12/26 07:12:04;;;;;;;22.07;12.57;;;8.90;99.90;;;;;;5110224;28;20237;-70
2022/12/26 07:14:31;;;;;;;18.87;11.37;;;8.90;99.90;;;;;;5109702;28;20601;-69
2022/12/26 07:16:58;;;;;;;21.30;12.30;;;8.90;99.90;;;;;;5110048;28;20578;-69
2022/12/26 07:19:24;;;;;;;24.53;12.97;;;8.90;99.90;;;;;;5109759;28;20573;-69
2022/12/26 07:21:51;;;;;;;25.93;12.93;;;8.90;99.90;;;;;;5109901;28;20302;-69
2022/12/26 07:24:20;;;;;;;23.93;13.43;;;8.90;99.90;;;;;;5109106;28;20322;-69
2022/12/26 07:26:48;;;;;;;23.00;12.53;;;8.90;99.90;;;;;;5109696;28;20206;-69
2022/12/26 07:29:18;;;;;;;21.60;12.20;;;8.80;99.90;;;;;;5110043;28;20275;-69
2022/12/26 07:31:47;;;;;;;27.03;12.10;;;8.90;99.90;;;;;;5103483;28;20214;-69
2022/12/26 07:34:14;;;;;;;20.50;11.73;;;8.80;99.90;;;;;;5113815;28;20205;-69
2022/12/26 07:36:41;;;;;;;20.70;11.37;;;8.80;99.90;;;;;;5111803;28;20315;-69
2022/12/26 07:39:12;;;;;;;21.03;12.17;;;8.80;99.90;;;;;;5112781;28;20629;-69
2022/12/26 07:41:57;;;;;;;20.40;11.63;;;8.80;99.90;;;;;;5113282;28;20238;-69
2022/12/26 07:44:31;;;;;;;18.67;11.43;;;8.80;99.90;;;;;;5107794;28;20654;-69
2022/12/26 07:46:59;;;;;;;22.43;12.17;;;8.80;99.90;;;;;;5091531;28;20312;-69
2022/12/26 07:49:26;;;;;;;19.80;11.37;;;8.90;99.90;;;;;;5110130;28;20280;-69
2022/12/26 07:51:52;;;;;;;18.43;10.80;;;8.90;99.90;;;;;;5111006;28;20777;-69
2022/12/26 07:54:22;;;;;;;20.43;11.30;;;8.90;99.90;;;;;;5112620;28;20270;-69
2022/12/26 07:56:49;;;;;;;17.63;10.90;;;8.90;99.90;;;;;;5091205;28;20667;-69
2022/12/26 07:59:16;;;;;;;18.43;10.73;;;8.90;99.90;;;;;;5109200;28;20305;-70
2022/12/26 08:01:43;;;;;;;19.47;11.07;;;8.90;99.90;;;;;;5092069;28;20309;-69
2022/12/26 08:04:11;;;;;;;18.87;10.40;;;8.90;99.90;;;;;;5106526;28;20234;-69
2022/12/26 08:06:38;;;;;;;21.73;11.17;;;8.90;99.90;;;;;;5111808;28;20271;-71
2022/12/26 08:09:05;;;;;;;17.13;10.03;;;8.90;99.90;;;;;;5104828;28;20237;-69
2022/12/26 08:11:34;;;;;;;20.17;11.73;;;8.90;99.90;;;;;;5111974;28;20195;-71
2022/12/26 08:14:01;;;;;;;17.10;11.20;;;8.90;99.90;;;;;;5092984;28;20226;-69
2022/12/26 08:16:28;;;;;;;18.73;10.97;;;8.90;99.90;;;;;;5109424;28;20211;-69
2022/12/26 08:18:54;;;;;;;18.13;10.77;;;8.90;99.90;;;;;;5112389;28;20241;-69
2022/12/26 08:21:21;;;;;;;19.77;11.73;;;8.90;99.90;;;;;;5108802;28;20639;-71
2022/12/26 08:23:48;;;;;;;18.97;10.87;;;8.90;99.90;;;;;;5109220;28;20198;-70
2022/12/26 08:26:21;;;;;;;17.57;10.90;;;9.00;99.90;;;;;;5112696;28;20301;-70
2022/12/26 08:28:49;;;;;;;20.63;10.13;;;9.00;99.90;;;;;;5109890;28;20287;-70
2022/12/26 08:31:19;;;;;;;17.80;9.97;;;9.10;99.90;;;;;;5112307;28;20215;-71
2022/12/26 08:33:45;;;;;;;19.80;9.77;;;9.10;99.90;;;;;;5109941;28;20203;-70
2022/12/26 08:36:15;;;;;;;18.73;10.33;;;9.20;99.90;;;;;;5112072;28;20210;-70
2022/12/26 08:38:42;;;;;;;17.80;9.90;;;9.20;99.90;;;;;;5103611;28;20206;-70
2022/12/26 08:41:09;;;;;;;15.93;9.30;;;9.30;99.90;;;;;;5108570;28;20240;-70
2022/12/26 08:43:35;;;;;;;15.63;8.93;;;9.30;99.90;;;;;;5111382;28;20266;-70
2022/12/26 08:46:22;;;;;;;14.73;8.33;;;9.40;99.90;;;;;;5109851;28;20211;-70
2022/12/26 08:48:50;;;;;;;13.73;8.07;;;9.40;99.90;;;;;;5110525;28;20248;-71
2022/12/26 08:51:23;;;;;;;16.17;7.77;;;9.50;99.90;;;;;;5107125;28;20291;-70
2022/12/26 08:53:52;;;;;;;12.73;7.60;;;9.50;99.90;;;;;;5106142;28;20554;-68
2022/12/26 08:56:21;;;;;;;14.93;7.50;;;9.60;99.90;;;;;;5091061;28;20272;-69
2022/12/26 08:58:48;;;;;;;13.40;6.43;;;9.60;99.90;;;;;;5111657;28;20289;-68
2022/12/26 09:01:20;;;;;;;11.30;7.00;;;9.70;99.90;;;;;;5102341;27;20578;-68
2022/12/26 09:03:52;;;;;;;10.80;6.27;;;9.80;99.90;;;;;;5106272;28;20199;-69
2022/12/26 09:06:19;;;;;;;14.73;6.90;;;9.80;99.90;;;;;;5105149;28;20620;-69
2022/12/26 09:08:46;;;;;;;10.67;6.80;;;9.80;99.90;;;;;;5108769;28;20227;-68
2022/12/26 09:11:17;;;;;;;7.80;6.03;;;9.80;99.90;;;;;;5107797;28;20235;-68
2022/12/26 09:13:45;;;;;;;10.73;6.70;;;9.90;99.90;;;;;;5109465;27;20250;-68
2022/12/26 09:16:14;;;;;;;9.70;6.27;;;9.90;99.90;;;;;;5105556;28;20216;-70
2022/12/26 09:18:47;;;;;;;10.37;7.37;;;9.90;99.90;;;;;;5107313;28;20785;-69
2022/12/26 09:21:17;;;;;;;11.50;6.47;;;9.90;99.90;;;;;;5104877;28;20260;-69
2022/12/26 09:23:43;;;;;;;12.47;7.03;;;10.00;99.90;;;;;;5107340;28;20241;-69
2022/12/26 09:26:17;;;;;;;10.60;6.97;;;10.00;99.90;;;;;;5090077;28;20313;-69
2022/12/26 09:28:46;;;;;;;12.50;7.53;;;10.00;99.90;;;;;;5069732;28;20287;-70
2022/12/26 09:31:18;;;;;;;11.20;7.47;;;10.00;99.90;;;;;;5109753;28;20313;-70
2022/12/26 09:33:46;;;;;;;15.60;7.17;;;10.00;99.90;;;;;;5106583;28;20540;-70
2022/12/26 09:36:15;;;;;;;13.30;7.40;;;10.00;99.90;;;;;;5107797;28;20202;-70
2022/12/26 09:38:43;;;;;;;16.10;8.40;;;9.90;99.90;;;;;;5098989;28;20664;-70
2022/12/26 09:41:49;;;;;;;15.43;8.07;;;9.90;99.90;;;;;;5096359;28;20210;-69
2022/12/26 09:44:31;;;;;;;11.83;7.20;;;9.90;99.90;;;;;;5105182;28;20222;-70
2022/12/26 09:47:10;;;;;;;17.63;9.43;;;9.80;99.90;;;;;;5105132;28;20249;-69
2022/12/26 09:49:44;;;;;;;19.80;7.90;;;9.80;99.90;;;;;;5106090;28;20305;-69
2022/12/26 09:52:16;;;;;;;14.67;7.97;;;9.80;99.90;;;;;;5084764;28;20426;-68
2022/12/26 09:54:50;;;;;;;12.77;8.90;;;9.80;99.90;;;;;;5104338;28;20237;-69
2022/12/26 09:57:36;;;;;;;15.50;10.13;;;9.80;99.90;;;;;;5106916;28;20254;-69
2022/12/26 10:00:05;;;;;;;13.43;8.40;;;9.90;99.90;;;;;;5108436;28;20211;-69
2022/12/26 10:02:33;;;;;;;11.37;7.27;;;9.90;99.90;;;;;;5110874;28;20297;-69
2022/12/26 10:05:00;;;;;;;13.77;8.97;;;9.90;99.90;;;;;;5109724;28;20227;-69
2022/12/26 10:07:42;;;;;;;11.00;7.53;;;9.90;99.90;;;;;;5108469;28;20210;-69
2022/12/26 10:10:11;;;;;;;12.33;5.87;;;9.90;99.90;;;;;;5107674;28;20235;-69
2022/12/26 10:13:05;;;;;;;12.43;6.73;;;9.90;99.90;;;;;;5108052;28;20257;-69
2022/12/26 10:15:32;;;;;;;8.97;5.20;;;9.90;99.90;;;;;;5107836;28;20207;-69
2022/12/26 10:18:19;;;;;;;10.57;4.60;;;9.90;99.90;;;;;;5109979;28;20770;-69
2022/12/26 10:21:05;;;;;;;10.80;4.03;;;10.00;99.90;;;;;;5102984;28;20199;-68
2022/12/26 10:23:43;;;;;;;9.43;3.93;;;10.00;99.90;;;;;;5108799;28;20207;-69
2022/12/26 10:26:27;;;;;;;9.47;5.00;;;10.00;99.90;;;;;;5107059;28;20717;-69
2022/12/26 10:29:14;;;;;;;11.83;3.97;;;9.90;99.90;;;;;;5108763;28;20213;-69
2022/12/26 10:32:09;;;;;;;15.33;4.17;;;9.90;99.90;;;;;;5110892;28;20396;-69
2022/12/26 10:34:44;;;;;;;15.07;6.47;;;9.90;99.90;;;;;;5109930;28;20206;-69
2022/12/26 10:37:26;;;;;;;10.30;3.33;;;9.80;99.90;;;;;;5105306;28;20643;-70
2022/12/26 10:39:58;;;;;;;12.93;3.67;;;9.70;99.90;;;;;;5109018;28;20260;-70
2022/12/26 10:42:41;;;;;;;16.00;4.00;;;9.70;99.90;;;;;;5110054;28;20293;-69
2022/12/26 10:45:31;;;;;;;9.67;3.80;;;9.60;99.90;;;;;;5088134;28;20253;-69
2022/12/26 10:47:58;;;;;;;13.90;3.90;;;9.60;99.90;;;;;;5109071;28;20713;-69
2022/12/26 10:50:27;;;;;;;12.03;3.37;;;9.40;99.90;;;;;;5107777;28;20239;-69
2022/12/26 10:52:58;;;;;;;9.43;3.83;;;9.30;99.90;;;;;;5108799;28;20707;-69
2022/12/26 10:55:31;;;;;;;16.57;3.20;;;9.20;99.90;;;;;;5108571;28;20214;-69
2022/12/26 10:58:30;;;;;;;11.13;3.20;;;9.00;99.90;;;;;;5105922;28;20199;-69
2022/12/26 11:01:36;;;;;;;10.80;3.53;;;8.90;99.90;;;;;;5108607;28;20268;-69
2022/12/26 11:04:13;;;;;;;13.57;3.80;;;8.80;99.90;;;;;;5107345;28;20199;-69
2022/12/26 11:06:42;;;;;;;11.33;3.70;;;8.70;99.90;;;;;;5092139;28;20310;-68
2022/12/26 11:09:30;;;;;;;11.23;2.97;;;8.70;99.90;;;;;;5112207;28;20203;-69
2022/12/26 11:11:57;;;;;;;6.80;2.40;;;8.70;99.90;;;;;;5112341;28;20684;-68
2022/12/26 11:14:27;;;;;;;9.53;2.70;;;8.60;99.90;;;;;;5112701;28;20207;-68
2022/12/26 11:17:03;;;;;;;10.30;2.67;;;8.60;99.90;;;;;;5113805;28;20234;-69
2022/12/26 11:19:34;;;;;;;7.70;2.30;;;8.60;99.90;;;;;;5113133;28;20205;-68
2022/12/26 11:22:23;;;;;;;6.97;2.03;;;8.50;99.90;;;;;;5095460;28;20553;-69
2022/12/26 11:25:13;;;;;;;9.33;2.60;;;8.40;99.90;;;;;;5088901;28;20243;-69
2022/12/26 11:27:45;;;;;;;10.60;3.27;;;8.40;99.90;;;;;;5094556;28;20246;-69
2022/12/26 11:30:21;;;;;;;8.80;3.37;;;8.40;99.90;;;;;;5113130;28;20230;-68
2022/12/26 11:33:02;;;;;;;5.73;2.20;;;8.40;99.90;;;;;;5111976;28;20221;-69
2022/12/26 11:35:37;;;;;;;12.07;2.27;;;8.40;99.90;;;;;;5112148;28;20209;-69
2022/12/26 11:38:06;;;;;;;7.43;2.00;;;8.40;99.90;;;;;;5113546;27;20298;-69
2022/12/26 11:41:30;;;;;;;14.93;2.40;;;8.40;99.90;;;;;;5113353;28;20277;-69
2022/12/26 11:43:27;;;;;;;8.67;2.20;;;8.40;99.90;;;;;;5110114;28;20293;-69
2022/12/26 11:45:54;;;;;;;6.70;1.80;;;8.30;99.90;;;;;;5112391;28;20317;-69
2022/12/26 11:48:24;;;;;;;9.93;1.90;;;8.30;99.90;;;;;;5113419;28;20289;-69
2022/12/26 11:50:52;;;;;;;6.50;2.67;;;8.30;99.90;;;;;;5086239;28;20348;-69
2022/12/26 11:53:24;;;;;;;5.23;2.23;;;8.30;99.90;;;;;;5112438;28;20237;-69
2022/12/26 11:56:02;;;;;;;5.30;1.63;;;8.40;99.90;;;;;;5107692;28;20353;-69
2022/12/26 11:58:31;;;;;;;10.20;2.13;;;8.40;99.90;;;;;;5111039;28;20230;-69
2022/12/26 12:00:57;;;;;;;9.70;2.30;;;8.50;99.90;;;;;;5087620;28;20243;-69
2022/12/26 12:03:36;;;;;;;7.80;1.80;;;8.60;99.90;;;;;;5111922;28;20614;-69
2022/12/26 12:06:16;;;;;;;13.63;2.53;;;8.70;99.90;;;;;;5074609;28;20272;-69
2022/12/26 12:08:57;;;;;;;12.40;2.60;;;8.70;99.90;;;;;;5111708;28;20202;-69
2022/12/26 12:11:37;;;;;;;6.57;2.47;;;8.70;99.90;;;;;;5112213;28;20214;-69
2022/12/26 12:14:27;;;;;;;6.90;2.37;;;8.70;99.90;;;;;;5112542;28;20231;-69
2022/12/26 12:17:19;;;;;;;10.17;2.17;;;8.70;99.90;;;;;;5111514;28;20631;-69
2022/12/26 12:20:25;;;;;;;6.57;2.10;;;8.70;99.90;;;;;;5091566;28;20674;-69
2022/12/26 12:23:03;;;;;;;5.03;1.30;;;8.70;99.90;;;;;;5112109;28;20210;-70
2022/12/26 12:26:05;;;;;;;9.10;1.77;;;8.60;99.90;;;;;;5108699;28;20717;-69
2022/12/26 12:29:13;;;;;;;5.00;1.70;;;8.60;99.90;;;;;;5111115;28;20619;-69
2022/12/26 12:32:02;;;;;;;7.37;2.57;;;8.60;99.90;;;;;;5092776;28;20207;-68
2022/12/26 12:34:39;;;;;;;6.20;1.83;;;8.60;99.90;;;;;;5106732;28;20207;-69
2022/12/26 12:37:22;;;;;;;5.53;1.93;;;8.60;99.90;;;;;;5106610;28;20754;-69
2022/12/26 12:40:20;;;;;;;7.80;3.10;;;8.70;99.90;;;;;;5109661;28;20749;-69
2022/12/26 12:43:00;;;;;;;10.00;2.47;;;8.70;99.90;;;;;;5111903;28;20203;-69
2022/12/26 12:45:43;;;;;;;14.27;8.00;;;8.70;99.90;;;;;;5110472;28;20256;-70
2022/12/26 12:48:34;;;;;;;15.47;7.57;;;8.70;99.90;;;;;;5094499;28;20244;-70
2022/12/26 12:51:13;;;;;;;8.73;3.47;;;8.70;99.90;;;;;;5110641;28;20281;-69
2022/12/26 12:54:01;;;;;;;9.00;2.43;;;8.70;99.90;;;;;;5111446;28;20235;-69
2022/12/26 12:56:37;;;;;;;12.10;4.50;;;8.70;99.90;;;;;;5109963;28;20744;-69
2022/12/26 12:59:24;;;;;;;10.37;3.20;;;8.70;99.90;;;;;;5110633;28;20233;-69
2022/12/26 13:01:57;;;;;;;11.40;5.27;;;8.70;99.90;;;;;;5110163;28;20646;-68
2022/12/26 13:04:43;;;;;;;11.07;4.03;;;8.70;99.90;;;;;;5110838;28;20211;-68
2022/12/26 13:07:19;;;;;;;6.87;2.93;;;8.70;99.90;;;;;;5087778;28;20228;-69
2022/12/26 13:09:55;;;;;;;11.00;3.70;;;8.60;99.90;;;;;;5108806;28;20214;-68
2022/12/26 13:12:38;;;;;;;10.07;4.23;;;8.60;99.90;;;;;;5106012;28;20214;-69
2022/12/26 13:15:21;;;;;;;13.17;5.57;;;8.50;99.90;;;;;;5105568;28;20203;-69
2022/12/26 13:17:57;;;;;;;6.47;2.27;;;8.40;99.90;;;;;;5108618;28;20326;-69
2022/12/26 13:21:07;;;;;;;8.17;2.27;;;8.40;99.90;;;;;;5087067;28;20201;-69
2022/12/26 13:26:32;;;;;;;7.07;3.17;;;8.10;99.90;;;;;;5107672;28;20531;-70
2022/12/26 13:29:08;;;;;;;8.60;3.60;;;8.00;99.90;;;;;;5107195;28;20201;-68
2022/12/26 13:31:36;;;;;;;8.17;2.10;;;8.00;99.90;;;;;;5110181;28;20281;-69
2022/12/26 13:34:08;;;;;;;9.13;2.27;;;7.90;99.90;;;;;;5093049;28;20233;-69
2022/12/26 13:36:48;;;;;;;6.37;2.43;;;7.90;99.90;;;;;;5110623;28;20299;-69
2022/12/26 13:39:31;;;;;;;10.87;2.50;;;7.80;99.90;;;;;;5107876;28;20305;-69
2022/12/26 13:44:53;;;;;;;9.90;4.50;;;7.70;99.90;;;;;;5109876;28;20295;-69
2022/12/26 13:47:33;;;;;;;12.60;4.23;;;7.70;99.90;;;;;;5106433;28;20228;-68
2022/12/26 13:50:37;;;;;;;10.27;4.20;;;7.70;99.90;;;;;;5106138;28;20332;-70
2022/12/26 13:53:24;;;;;;;14.47;5.93;;;7.70;99.90;;;;;;5085503;28;20817;-69
2022/12/26 13:55:56;;;;;;;8.50;2.60;;;7.80;99.90;;;;;;5106873;28;20205;-69
2022/12/26 13:58:38;;;;;;;8.20;3.03;;;7.70;99.90;;;;;;5092475;28;20290;-68
2022/12/26 14:01:39;;;;;;;7.33;1.80;;;7.70;99.90;;;;;;5108304;28;20260;-68
2022/12/26 14:04:39;;;;;;;9.03;2.30;;;7.70;99.90;;;;;;5108736;28;20212;-67
2022/12/26 14:07:24;;;;;;;3.93;2.30;;;7.80;99.90;;;;;;5106979;28;20233;-69
2022/12/26 14:10:13;;;;;;;6.33;1.70;;;7.80;99.90;;;;;;5107970;28;20262;-69
2022/12/26 14:12:48;;;;;;;12.50;2.20;;;7.90;99.90;;;;;;5105093;28;20202;-68
2022/12/26 14:15:25;;;;;;;5.90;1.70;;;7.90;99.90;;;;;;5108793;28;20206;-69
2022/12/26 14:18:07;;;;;;;4.50;1.20;;;8.10;99.90;;;;;;5107484;28;20797;-69
2022/12/26 14:20:37;;;;;;;9.17;2.33;;;8.20;99.90;;;;;;5105876;28;20650;-69
2022/12/26 14:23:40;;;;;;;10.83;1.50;;;8.20;99.90;;;;;;5110301;28;20217;-69
2022/12/26 14:26:44;;;;;;;5.63;2.00;;;8.20;99.90;;;;;;5092450;28;20748;-69
2022/12/26 14:29:29;;;;;;;5.60;1.67;;;8.10;99.90;;;;;;5104201;28;20236;-69
2022/12/26 14:31:56;;;;;;;11.50;2.80;;;7.90;99.90;;;;;;5107715;28;20253;-69
2022/12/26 14:34:52;;;;;;;6.93;1.60;;;7.80;99.90;;;;;;5107249;28;20732;-69
2022/12/26 14:37:41;;;;;;;6.33;2.80;;;7.60;99.90;;;;;;5102629;28;20674;-69
2022/12/26 14:40:26;;;;;;;8.90;1.93;;;7.50;99.90;;;;;;5108984;28;20215;-67
2022/12/26 14:43:10;;;;;;;7.47;1.80;;;7.30;99.90;;;;;;5109270;28;20330;-68
2022/12/26 14:45:51;;;;;;;5.07;1.60;;;7.20;99.90;;;;;;5094150;28;20230;-68
2022/12/26 14:48:18;;;;;;;6.07;1.63;;;7.20;99.90;;;;;;5112057;28;20204;-69
2022/12/26 14:50:46;;;;;;;10.63;2.40;;;7.10;99.90;;;;;;5096435;28;20274;-68
2022/12/26 14:53:27;;;;;;;5.93;2.10;;;7.00;99.90;;;;;;5093722;28;20285;-69
2022/12/26 14:56:09;;;;;;;7.37;2.17;;;6.90;99.90;;;;;;5093001;28;20287;-69
2022/12/26 14:58:40;;;;;;;7.30;2.17;;;6.80;99.90;;;;;;5090180;28;20203;-68
2022/12/26 15:01:11;;;;;;;11.63;2.83;;;6.70;99.90;;;;;;5093962;28;20219;-69
2022/12/26 15:04:15;;;;;;;10.47;2.50;;;6.70;99.90;;;;;;5089729;28;20279;-69
2022/12/26 15:06:42;;;;;;;4.80;2.10;;;6.70;99.90;;;;;;5092264;28;20321;-69
2022/12/26 15:09:18;;;;;;;10.77;2.80;;;6.60;99.90;;;;;;5093364;28;20211;-69
2022/12/26 15:12:12;;;;;;;9.10;2.17;;;6.50;99.90;;;;;;5093512;28;20203;-69
2022/12/26 15:15:09;;;;;;;11.97;2.03;;;6.60;99.90;;;;;;5092610;28;20293;-69
2022/12/26 15:17:55;;;;;;;9.67;2.00;;;6.50;99.90;;;;;;5092652;28;20236;-69
2022/12/26 15:20:40;;;;;;;7.77;1.80;;;6.50;99.90;;;;;;5090495;28;20699;-68
2022/12/26 15:23:28;;;;;;;7.73;2.13;;;6.50;99.90;;;;;;5092996;28;20706;-68
2022/12/26 15:26:25;;;;;;;9.97;1.97;;;6.50;99.90;;;;;;5092780;28;20222;-69
2022/12/26 15:29:13;;;;;;;9.83;1.77;;;6.40;99.90;;;;;;5079238;28;20269;-70
2022/12/26 15:31:42;;;;;;;7.87;2.03;;;6.40;99.90;;;;;;5074677;28;20241;-69